sensor_id;sensor_type;location;lat;lon;timestamp;P1;durP1;ratioP1;P2;durP2;ratioP2
14394;SDS011;7282;49.204;10.652;2022-10-26T00:00:42;6.87;;;6.10;;
14394;SDS011;7282;49.204;10.652;2022-10-26T00:03:09;6.73;;;6.13;;
14394;SDS011;7282;49.204;10.652;2022-10-26T00:05:35;7.93;;;7.13;;
14394;SDS011;7282;49.204;10.652;2022-10-26T00:08:02;10.27;;;7.73;;
14394;SDS011;7282;49.204;10.652;2022-10-26T00:10:29;8.43;;;7.37;;
14394;SDS011;7282;49.204;10.652;2022-10-26T00:12:56;8.63;;;7.33;;
14394;SDS011;7282;49.204;10.652;2022-10-26T00:15:22;7.83;;;7.03;;
14394;SDS011;7282;49.204;10.652;2022-10-26T00:17:49;7.30;;;6.20;;
14394;SDS011;7282;49.204;10.652;2022-10-26T00:20:16;7.57;;;6.23;;
14394;SDS011;7282;49.204;10.652;2022-10-26T00:22:42;9.13;;;6.77;;
14394;SDS011;7282;49.204;10.652;2022-10-26T00:25:09;9.83;;;7.27;;
14394;SDS011;7282;49.204;10.652;2022-10-26T00:27:36;8.90;;;7.20;;
14394;SDS011;7282;49.204;10.652;2022-10-26T00:30:03;9.57;;;7.00;;
14394;SDS011;7282;49.204;10.652;2022-10-26T00:32:30;7.50;;;6.77;;
14394;SDS011;7282;49.204;10.652;2022-10-26T00:34:57;8.80;;;7.00;;
14394;SDS011;7282;49.204;10.652;2022-10-26T00:37:23;10.10;;;6.73;;
14394;SDS011;7282;49.204;10.652;2022-10-26T00:39:50;9.13;;;6.60;;
14394;SDS011;7282;49.204;10.652;2022-10-26T00:42:18;11.47;;;7.33;;
14394;SDS011;7282;49.204;10.652;2022-10-26T00:47:23;8.93;;;6.83;;
14394;SDS011;7282;49.204;10.652;2022-10-26T00:49:48;8.53;;;6.40;;
14394;SDS011;7282;49.204;10.652;2022-10-26T00:52:17;8.27;;;6.90;;
14394;SDS011;7282;49.204;10.652;2022-10-26T00:54:45;9.67;;;7.43;;
14394;SDS011;7282;49.204;10.652;2022-10-26T00:57:12;9.87;;;7.43;;
14394;SDS011;7282;49.204;10.652;2022-10-26T00:59:40;7.43;;;6.73;;
14394;SDS011;7282;49.204;10.652;2022-10-26T01:02:07;7.70;;;6.90;;
14394;SDS011;7282;49.204;10.652;2022-10-26T01:04:34;6.17;;;5.57;;
14394;SDS011;7282;49.204;10.652;2022-10-26T01:07:01;6.40;;;5.60;;
14394;SDS011;7282;49.204;10.652;2022-10-26T01:09:29;7.23;;;5.30;;
14394;SDS011;7282;49.204;10.652;2022-10-26T01:11:55;5.77;;;4.93;;
14394;SDS011;7282;49.204;10.652;2022-10-26T01:14:22;5.33;;;4.83;;
14394;SDS011;7282;49.204;10.652;2022-10-26T01:27:44;5.10;;;4.60;;
14394;SDS011;7282;49.204;10.652;2022-10-26T01:30:18;5.97;;;5.37;;
14394;SDS011;7282;49.204;10.652;2022-10-26T01:35:27;6.33;;;5.60;;
14394;SDS011;7282;49.204;10.652;2022-10-26T01:37:55;6.67;;;5.97;;
14394;SDS011;7282;49.204;10.652;2022-10-26T01:40:28;7.47;;;6.67;;
14394;SDS011;7282;49.204;10.652;2022-10-26T01:42:54;7.23;;;6.37;;
14394;SDS011;7282;49.204;10.652;2022-10-26T01:45:22;7.63;;;6.20;;
14394;SDS011;7282;49.204;10.652;2022-10-26T01:47:49;8.57;;;7.17;;
14394;SDS011;7282;49.204;10.652;2022-10-26T01:50:17;9.23;;;6.73;;
14394;SDS011;7282;49.204;10.652;2022-10-26T01:52:48;7.40;;;6.57;;
14394;SDS011;7282;49.204;10.652;2022-10-26T01:58:00;9.80;;;8.07;;
14394;SDS011;7282;49.204;10.652;2022-10-26T02:00:27;8.27;;;7.27;;
14394;SDS011;7282;49.204;10.652;2022-10-26T02:02:59;7.77;;;6.97;;
14394;SDS011;7282;49.204;10.652;2022-10-26T02:08:13;7.07;;;6.37;;
14394;SDS011;7282;49.204;10.652;2022-10-26T02:10:39;7.60;;;6.80;;
14394;SDS011;7282;49.204;10.652;2022-10-26T02:20:33;9.27;;;7.00;;
14394;SDS011;7282;49.204;10.652;2022-10-26T02:23:02;11.17;;;7.50;;
14394;SDS011;7282;49.204;10.652;2022-10-26T02:25:31;7.07;;;6.37;;
14394;SDS011;7282;49.204;10.652;2022-10-26T02:27:59;7.27;;;6.00;;
14394;SDS011;7282;49.204;10.652;2022-10-26T02:30:26;7.67;;;6.07;;
14394;SDS011;7282;49.204;10.652;2022-10-26T02:32:54;8.90;;;7.17;;
14394;SDS011;7282;49.204;10.652;2022-10-26T02:35:26;10.97;;;8.17;;
14394;SDS011;7282;49.204;10.652;2022-10-26T02:37:53;8.43;;;7.60;;
14394;SDS011;7282;49.204;10.652;2022-10-26T02:40:21;8.10;;;7.13;;
14394;SDS011;7282;49.204;10.652;2022-10-26T02:42:49;10.23;;;8.37;;
14394;SDS011;7282;49.204;10.652;2022-10-26T02:45:18;8.60;;;7.80;;
14394;SDS011;7282;49.204;10.652;2022-10-26T02:47:45;9.30;;;7.37;;
14394;SDS011;7282;49.204;10.652;2022-10-26T02:50:12;9.87;;;7.30;;
14394;SDS011;7282;49.204;10.652;2022-10-26T02:52:43;8.20;;;6.90;;
14394;SDS011;7282;49.204;10.652;2022-10-26T02:55:11;9.43;;;7.40;;
14394;SDS011;7282;49.204;10.652;2022-10-26T02:57:42;8.17;;;6.93;;
14394;SDS011;7282;49.204;10.652;2022-10-26T03:00:11;8.20;;;7.40;;
14394;SDS011;7282;49.204;10.652;2022-10-26T03:02:38;6.90;;;6.20;;
14394;SDS011;7282;49.204;10.652;2022-10-26T03:07:39;7.60;;;6.83;;
14394;SDS011;7282;49.204;10.652;2022-10-26T03:10:06;6.70;;;6.00;;
14394;SDS011;7282;49.204;10.652;2022-10-26T03:12:33;7.50;;;6.77;;
14394;SDS011;7282;49.204;10.652;2022-10-26T03:15:00;7.73;;;6.07;;
14394;SDS011;7282;49.204;10.652;2022-10-26T03:17:26;7.80;;;6.73;;
14394;SDS011;7282;49.204;10.652;2022-10-26T03:19:53;8.93;;;6.90;;
14394;SDS011;7282;49.204;10.652;2022-10-26T03:22:21;7.30;;;6.60;;
14394;SDS011;7282;49.204;10.652;2022-10-26T03:24:48;7.53;;;6.73;;
14394;SDS011;7282;49.204;10.652;2022-10-26T03:27:14;8.03;;;6.70;;
14394;SDS011;7282;49.204;10.652;2022-10-26T03:29:41;6.37;;;5.77;;
14394;SDS011;7282;49.204;10.652;2022-10-26T03:32:10;6.40;;;5.80;;
14394;SDS011;7282;49.204;10.652;2022-10-26T03:34:37;6.13;;;5.53;;
14394;SDS011;7282;49.204;10.652;2022-10-26T03:37:04;8.10;;;6.43;;
14394;SDS011;7282;49.204;10.652;2022-10-26T03:39:30;6.87;;;6.07;;
14394;SDS011;7282;49.204;10.652;2022-10-26T03:41:57;6.37;;;5.83;;
14394;SDS011;7282;49.204;10.652;2022-10-26T03:44:24;6.70;;;6.00;;
14394;SDS011;7282;49.204;10.652;2022-10-26T03:46:51;5.90;;;5.30;;
14394;SDS011;7282;49.204;10.652;2022-10-26T03:49:17;7.13;;;6.33;;
14394;SDS011;7282;49.204;10.652;2022-10-26T03:51:44;5.90;;;5.40;;
14394;SDS011;7282;49.204;10.652;2022-10-26T03:54:11;7.83;;;6.13;;
14394;SDS011;7282;49.204;10.652;2022-10-26T03:56:38;9.37;;;6.67;;
14394;SDS011;7282;49.204;10.652;2022-10-26T03:59:04;7.07;;;6.37;;
14394;SDS011;7282;49.204;10.652;2022-10-26T04:01:31;9.37;;;8.13;;
14394;SDS011;7282;49.204;10.652;2022-10-26T04:03:58;10.03;;;8.20;;
14394;SDS011;7282;49.204;10.652;2022-10-26T04:06:24;10.20;;;8.80;;
14394;SDS011;7282;49.204;10.652;2022-10-26T04:08:51;10.77;;;8.40;;
14394;SDS011;7282;49.204;10.652;2022-10-26T04:11:20;13.37;;;10.63;;
14394;SDS011;7282;49.204;10.652;2022-10-26T04:13:46;11.73;;;9.17;;
14394;SDS011;7282;49.204;10.652;2022-10-26T04:16:13;9.87;;;8.47;;
14394;SDS011;7282;49.204;10.652;2022-10-26T04:18:40;12.77;;;9.77;;
14394;SDS011;7282;49.204;10.652;2022-10-26T04:21:06;12.73;;;10.20;;
14394;SDS011;7282;49.204;10.652;2022-10-26T04:23:33;13.13;;;10.90;;
14394;SDS011;7282;49.204;10.652;2022-10-26T04:26:00;11.83;;;10.43;;
14394;SDS011;7282;49.204;10.652;2022-10-26T04:28:27;12.57;;;10.60;;
14394;SDS011;7282;49.204;10.652;2022-10-26T04:30:53;12.90;;;10.63;;
14394;SDS011;7282;49.204;10.652;2022-10-26T04:33:23;11.67;;;9.87;;
14394;SDS011;7282;49.204;10.652;2022-10-26T04:35:49;11.40;;;10.20;;
14394;SDS011;7282;49.204;10.652;2022-10-26T04:38:16;14.73;;;11.43;;
14394;SDS011;7282;49.204;10.652;2022-10-26T04:40:43;12.23;;;10.80;;
14394;SDS011;7282;49.204;10.652;2022-10-26T04:43:09;14.50;;;12.00;;
14394;SDS011;7282;49.204;10.652;2022-10-26T04:45:36;17.07;;;11.43;;
14394;SDS011;7282;49.204;10.652;2022-10-26T04:48:04;12.13;;;10.43;;
14394;SDS011;7282;49.204;10.652;2022-10-26T04:50:31;10.93;;;9.50;;
14394;SDS011;7282;49.204;10.652;2022-10-26T04:52:59;11.33;;;8.83;;
14394;SDS011;7282;49.204;10.652;2022-10-26T04:55:25;10.60;;;9.60;;
14394;SDS011;7282;49.204;10.652;2022-10-26T04:57:52;12.47;;;9.80;;
14394;SDS011;7282;49.204;10.652;2022-10-26T05:00:19;12.10;;;9.47;;
14394;SDS011;7282;49.204;10.652;2022-10-26T05:02:46;11.33;;;10.13;;
14394;SDS011;7282;49.204;10.652;2022-10-26T05:05:13;12.27;;;10.87;;
14394;SDS011;7282;49.204;10.652;2022-10-26T05:07:39;15.33;;;10.17;;
14394;SDS011;7282;49.204;10.652;2022-10-26T05:10:06;10.00;;;9.00;;
14394;SDS011;7282;49.204;10.652;2022-10-26T05:12:33;10.10;;;9.03;;
14394;SDS011;7282;49.204;10.652;2022-10-26T05:15:00;10.50;;;9.40;;
14394;SDS011;7282;49.204;10.652;2022-10-26T05:17:26;10.67;;;8.77;;
14394;SDS011;7282;49.204;10.652;2022-10-26T05:19:53;10.67;;;8.07;;
14394;SDS011;7282;49.204;10.652;2022-10-26T05:22:25;12.03;;;10.70;;
14394;SDS011;7282;49.204;10.652;2022-10-26T05:24:51;11.17;;;9.13;;
14394;SDS011;7282;49.204;10.652;2022-10-26T05:27:23;9.53;;;8.17;;
14394;SDS011;7282;49.204;10.652;2022-10-26T05:29:47;9.40;;;7.83;;
14394;SDS011;7282;49.204;10.652;2022-10-26T05:32:13;9.50;;;7.33;;
14394;SDS011;7282;49.204;10.652;2022-10-26T05:34:40;8.90;;;7.30;;
14394;SDS011;7282;49.204;10.652;2022-10-26T05:37:07;8.93;;;7.83;;
14394;SDS011;7282;49.204;10.652;2022-10-26T05:39:33;9.83;;;7.60;;
14394;SDS011;7282;49.204;10.652;2022-10-26T05:42:00;8.80;;;8.00;;
14394;SDS011;7282;49.204;10.652;2022-10-26T05:44:27;8.30;;;7.50;;
14394;SDS011;7282;49.204;10.652;2022-10-26T05:46:53;13.10;;;8.80;;
14394;SDS011;7282;49.204;10.652;2022-10-26T05:49:20;9.47;;;7.40;;
14394;SDS011;7282;49.204;10.652;2022-10-26T05:51:47;8.17;;;7.37;;
14394;SDS011;7282;49.204;10.652;2022-10-26T05:54:13;8.53;;;7.60;;
14394;SDS011;7282;49.204;10.652;2022-10-26T05:56:40;8.03;;;7.30;;
14394;SDS011;7282;49.204;10.652;2022-10-26T05:59:11;8.80;;;7.30;;
14394;SDS011;7282;49.204;10.652;2022-10-26T06:06:45;6.43;;;5.83;;
14394;SDS011;7282;49.204;10.652;2022-10-26T06:09:13;6.57;;;5.83;;
14394;SDS011;7282;49.204;10.652;2022-10-26T06:11:40;7.07;;;6.37;;
14394;SDS011;7282;49.204;10.652;2022-10-26T06:14:07;6.73;;;6.07;;
14394;SDS011;7282;49.204;10.652;2022-10-26T06:16:45;7.77;;;5.87;;
14394;SDS011;7282;49.204;10.652;2022-10-26T06:19:14;6.40;;;5.80;;
14394;SDS011;7282;49.204;10.652;2022-10-26T06:24:35;7.77;;;5.63;;
14394;SDS011;7282;49.204;10.652;2022-10-26T06:29:36;6.57;;;5.63;;
14394;SDS011;7282;49.204;10.652;2022-10-26T06:31:59;6.30;;;5.60;;
14394;SDS011;7282;49.204;10.652;2022-10-26T06:34:28;6.87;;;5.83;;
14394;SDS011;7282;49.204;10.652;2022-10-26T06:36:56;6.67;;;5.90;;
14394;SDS011;7282;49.204;10.652;2022-10-26T06:39:23;5.47;;;5.00;;
14394;SDS011;7282;49.204;10.652;2022-10-26T06:41:51;8.97;;;6.57;;
14394;SDS011;7282;49.204;10.652;2022-10-26T06:44:21;7.17;;;6.00;;
14394;SDS011;7282;49.204;10.652;2022-10-26T06:46:51;5.90;;;5.40;;
14394;SDS011;7282;49.204;10.652;2022-10-26T06:49:29;7.07;;;5.53;;
14394;SDS011;7282;49.204;10.652;2022-10-26T06:51:57;5.70;;;5.20;;
14394;SDS011;7282;49.204;10.652;2022-10-26T06:57:10;7.73;;;5.13;;
14394;SDS011;7282;49.204;10.652;2022-10-26T06:59:41;5.50;;;4.97;;
14394;SDS011;7282;49.204;10.652;2022-10-26T07:02:08;5.50;;;4.90;;
14394;SDS011;7282;49.204;10.652;2022-10-26T07:04:35;6.57;;;4.97;;
14394;SDS011;7282;49.204;10.652;2022-10-26T07:07:02;5.27;;;4.57;;
14394;SDS011;7282;49.204;10.652;2022-10-26T07:09:28;5.90;;;4.97;;
14394;SDS011;7282;49.204;10.652;2022-10-26T07:11:55;5.67;;;4.93;;
14394;SDS011;7282;49.204;10.652;2022-10-26T07:14:22;5.57;;;4.90;;
14394;SDS011;7282;49.204;10.652;2022-10-26T07:16:48;6.63;;;5.20;;
14394;SDS011;7282;49.204;10.652;2022-10-26T07:19:15;5.60;;;5.10;;
14394;SDS011;7282;49.204;10.652;2022-10-26T07:21:42;5.53;;;4.40;;
14394;SDS011;7282;49.204;10.652;2022-10-26T07:24:09;6.20;;;5.07;;
14394;SDS011;7282;49.204;10.652;2022-10-26T07:26:35;5.40;;;4.90;;
14394;SDS011;7282;49.204;10.652;2022-10-26T07:29:02;5.57;;;4.90;;
14394;SDS011;7282;49.204;10.652;2022-10-26T07:31:29;5.93;;;4.90;;
14394;SDS011;7282;49.204;10.652;2022-10-26T07:33:58;5.23;;;4.83;;
14394;SDS011;7282;49.204;10.652;2022-10-26T07:36:27;7.00;;;5.33;;
14394;SDS011;7282;49.204;10.652;2022-10-26T07:38:54;6.30;;;5.67;;
14394;SDS011;7282;49.204;10.652;2022-10-26T07:41:20;6.63;;;5.60;;
14394;SDS011;7282;49.204;10.652;2022-10-26T07:43:47;6.50;;;5.83;;
14394;SDS011;7282;49.204;10.652;2022-10-26T07:46:15;6.93;;;6.03;;
14394;SDS011;7282;49.204;10.652;2022-10-26T07:48:43;6.40;;;5.80;;
14394;SDS011;7282;49.204;10.652;2022-10-26T07:51:10;8.83;;;6.07;;
14394;SDS011;7282;49.204;10.652;2022-10-26T07:53:36;7.50;;;5.70;;
14394;SDS011;7282;49.204;10.652;2022-10-26T07:56:03;7.47;;;6.07;;
14394;SDS011;7282;49.204;10.652;2022-10-26T07:58:30;8.23;;;6.70;;
14394;SDS011;7282;49.204;10.652;2022-10-26T08:00:57;7.33;;;6.17;;
14394;SDS011;7282;49.204;10.652;2022-10-26T08:03:25;7.20;;;6.00;;
14394;SDS011;7282;49.204;10.652;2022-10-26T08:05:52;7.47;;;6.10;;
14394;SDS011;7282;49.204;10.652;2022-10-26T08:08:20;7.13;;;6.43;;
14394;SDS011;7282;49.204;10.652;2022-10-26T08:10:47;6.43;;;5.83;;
14394;SDS011;7282;49.204;10.652;2022-10-26T08:13:14;8.13;;;6.83;;
14394;SDS011;7282;49.204;10.652;2022-10-26T08:15:41;8.03;;;6.53;;
14394;SDS011;7282;49.204;10.652;2022-10-26T08:18:07;7.53;;;5.90;;
14394;SDS011;7282;49.204;10.652;2022-10-26T08:20:34;7.50;;;6.43;;
14394;SDS011;7282;49.204;10.652;2022-10-26T08:23:01;6.37;;;5.67;;
14394;SDS011;7282;49.204;10.652;2022-10-26T08:25:29;7.07;;;5.90;;
14394;SDS011;7282;49.204;10.652;2022-10-26T08:27:59;6.83;;;6.03;;
14394;SDS011;7282;49.204;10.652;2022-10-26T08:30:24;8.03;;;5.70;;
14394;SDS011;7282;49.204;10.652;2022-10-26T08:32:58;6.67;;;5.57;;
14394;SDS011;7282;49.204;10.652;2022-10-26T08:35:25;6.43;;;5.70;;
14394;SDS011;7282;49.204;10.652;2022-10-26T08:37:52;7.13;;;6.17;;
14394;SDS011;7282;49.204;10.652;2022-10-26T08:40:21;7.73;;;5.50;;
14394;SDS011;7282;49.204;10.652;2022-10-26T08:42:48;6.33;;;4.97;;
14394;SDS011;7282;49.204;10.652;2022-10-26T08:45:23;9.80;;;5.87;;
14394;SDS011;7282;49.204;10.652;2022-10-26T08:47:48;7.30;;;5.20;;
14394;SDS011;7282;49.204;10.652;2022-10-26T08:50:24;6.57;;;5.03;;
14394;SDS011;7282;49.204;10.652;2022-10-26T08:52:56;6.50;;;5.57;;
14394;SDS011;7282;49.204;10.652;2022-10-26T08:55:20;5.63;;;5.00;;
14394;SDS011;7282;49.204;10.652;2022-10-26T08:57:47;6.23;;;5.10;;
14394;SDS011;7282;49.204;10.652;2022-10-26T09:00:19;7.17;;;5.33;;
14394;SDS011;7282;49.204;10.652;2022-10-26T09:02:53;5.60;;;5.10;;
14394;SDS011;7282;49.204;10.652;2022-10-26T09:05:20;6.67;;;5.47;;
14394;SDS011;7282;49.204;10.652;2022-10-26T09:07:55;6.20;;;5.70;;
14394;SDS011;7282;49.204;10.652;2022-10-26T09:10:24;6.87;;;5.50;;
14394;SDS011;7282;49.204;10.652;2022-10-26T09:13:07;5.67;;;5.00;;
14394;SDS011;7282;49.204;10.652;2022-10-26T09:18:06;5.73;;;5.00;;
14394;SDS011;7282;49.204;10.652;2022-10-26T09:23:06;6.63;;;5.60;;
14394;SDS011;7282;49.204;10.652;2022-10-26T09:25:32;5.90;;;5.30;;
14394;SDS011;7282;49.204;10.652;2022-10-26T09:27:59;5.57;;;5.07;;
14394;SDS011;7282;49.204;10.652;2022-10-26T09:30:26;5.80;;;5.20;;
14394;SDS011;7282;49.204;10.652;2022-10-26T09:32:58;5.67;;;5.17;;
14394;SDS011;7282;49.204;10.652;2022-10-26T09:35:28;6.90;;;5.00;;
14394;SDS011;7282;49.204;10.652;2022-10-26T09:37:56;6.00;;;5.30;;
14394;SDS011;7282;49.204;10.652;2022-10-26T09:40:26;5.80;;;5.30;;
14394;SDS011;7282;49.204;10.652;2022-10-26T09:42:59;5.30;;;4.83;;
14394;SDS011;7282;49.204;10.652;2022-10-26T09:45:28;6.07;;;5.10;;
14394;SDS011;7282;49.204;10.652;2022-10-26T09:47:56;5.27;;;4.77;;
14394;SDS011;7282;49.204;10.652;2022-10-26T09:50:31;5.37;;;4.57;;
14394;SDS011;7282;49.204;10.652;2022-10-26T09:53:00;5.77;;;4.97;;
14394;SDS011;7282;49.204;10.652;2022-10-26T09:55:27;5.60;;;5.07;;
14394;SDS011;7282;49.204;10.652;2022-10-26T09:57:55;5.43;;;4.93;;
14394;SDS011;7282;49.204;10.652;2022-10-26T10:00:22;6.07;;;5.20;;
14394;SDS011;7282;49.204;10.652;2022-10-26T10:02:54;7.70;;;5.00;;
14394;SDS011;7282;49.204;10.652;2022-10-26T10:05:22;5.73;;;4.90;;
14394;SDS011;7282;49.204;10.652;2022-10-26T10:07:49;5.57;;;4.80;;
14394;SDS011;7282;49.204;10.652;2022-10-26T10:10:19;8.00;;;5.43;;
14394;SDS011;7282;49.204;10.652;2022-10-26T10:12:47;7.97;;;5.40;;
14394;SDS011;7282;49.204;10.652;2022-10-26T10:15:17;9.03;;;5.10;;
14394;SDS011;7282;49.204;10.652;2022-10-26T10:17:48;5.17;;;4.60;;
14394;SDS011;7282;49.204;10.652;2022-10-26T10:20:19;4.73;;;4.30;;
14394;SDS011;7282;49.204;10.652;2022-10-26T10:22:57;5.53;;;4.70;;
14394;SDS011;7282;49.204;10.652;2022-10-26T10:25:22;7.23;;;5.17;;
14394;SDS011;7282;49.204;10.652;2022-10-26T10:27:52;5.50;;;4.87;;
14394;SDS011;7282;49.204;10.652;2022-10-26T10:30:21;5.53;;;4.60;;
14394;SDS011;7282;49.204;10.652;2022-10-26T10:33:10;6.13;;;4.40;;
14394;SDS011;7282;49.204;10.652;2022-10-26T10:35:23;5.53;;;4.57;;
14394;SDS011;7282;49.204;10.652;2022-10-26T10:37:50;6.10;;;4.70;;
14394;SDS011;7282;49.204;10.652;2022-10-26T10:40:22;4.70;;;4.17;;
14394;SDS011;7282;49.204;10.652;2022-10-26T10:42:49;5.40;;;4.90;;
14394;SDS011;7282;49.204;10.652;2022-10-26T10:45:21;5.83;;;4.33;;
14394;SDS011;7282;49.204;10.652;2022-10-26T10:47:56;6.03;;;4.37;;
14394;SDS011;7282;49.204;10.652;2022-10-26T10:50:14;5.57;;;4.97;;
14394;SDS011;7282;49.204;10.652;2022-10-26T10:52:42;6.60;;;4.97;;
14394;SDS011;7282;49.204;10.652;2022-10-26T11:00:23;5.47;;;4.27;;
14394;SDS011;7282;49.204;10.652;2022-10-26T11:02:56;4.57;;;4.00;;
14394;SDS011;7282;49.204;10.652;2022-10-26T11:08:07;4.63;;;4.00;;
14394;SDS011;7282;49.204;10.652;2022-10-26T11:10:36;5.57;;;4.07;;
14394;SDS011;7282;49.204;10.652;2022-10-26T11:13:47;5.77;;;4.10;;
14394;SDS011;7282;49.204;10.652;2022-10-26T11:15:35;5.27;;;3.80;;
14394;SDS011;7282;49.204;10.652;2022-10-26T11:18:07;4.10;;;3.70;;
14394;SDS011;7282;49.204;10.652;2022-10-26T11:20:37;4.67;;;3.60;;
14394;SDS011;7282;49.204;10.652;2022-10-26T11:23:07;4.73;;;4.07;;
14394;SDS011;7282;49.204;10.652;2022-10-26T11:25:37;6.23;;;4.00;;
14394;SDS011;7282;49.204;10.652;2022-10-26T11:28:50;6.50;;;4.43;;
14394;SDS011;7282;49.204;10.652;2022-10-26T11:30:32;6.90;;;4.23;;
14394;SDS011;7282;49.204;10.652;2022-10-26T11:35:51;5.17;;;3.77;;
14394;SDS011;7282;49.204;10.652;2022-10-26T11:38:17;6.60;;;3.80;;
14394;SDS011;7282;49.204;10.652;2022-10-26T11:40:56;6.30;;;3.93;;
14394;SDS011;7282;49.204;10.652;2022-10-26T11:46:07;4.40;;;3.77;;
14394;SDS011;7282;49.204;10.652;2022-10-26T11:48:35;6.77;;;4.13;;
14394;SDS011;7282;49.204;10.652;2022-10-26T11:51:02;6.53;;;4.53;;
14394;SDS011;7282;49.204;10.652;2022-10-26T11:53:31;7.37;;;4.20;;
14394;SDS011;7282;49.204;10.652;2022-10-26T11:55:58;5.20;;;3.70;;
14394;SDS011;7282;49.204;10.652;2022-10-26T11:58:26;6.70;;;3.83;;
14394;SDS011;7282;49.204;10.652;2022-10-26T12:00:59;5.83;;;4.10;;
14394;SDS011;7282;49.204;10.652;2022-10-26T12:03:27;6.37;;;4.33;;
14394;SDS011;7282;49.204;10.652;2022-10-26T12:05:55;4.87;;;3.50;;
14394;SDS011;7282;49.204;10.652;2022-10-26T12:08:23;4.57;;;3.40;;
14394;SDS011;7282;49.204;10.652;2022-10-26T12:10:53;5.73;;;3.90;;
14394;SDS011;7282;49.204;10.652;2022-10-26T12:15:59;8.23;;;4.00;;
14394;SDS011;7282;49.204;10.652;2022-10-26T12:18:25;6.67;;;3.13;;
14394;SDS011;7282;49.204;10.652;2022-10-26T12:21:02;8.87;;;3.70;;
14394;SDS011;7282;49.204;10.652;2022-10-26T12:23:52;6.30;;;3.33;;
14394;SDS011;7282;49.204;10.652;2022-10-26T12:34:04;5.70;;;3.10;;
14394;SDS011;7282;49.204;10.652;2022-10-26T12:44:39;6.70;;;3.27;;
14394;SDS011;7282;49.204;10.652;2022-10-26T12:47:07;10.00;;;3.80;;
14394;SDS011;7282;49.204;10.652;2022-10-26T12:52:19;7.10;;;2.87;;
14394;SDS011;7282;49.204;10.652;2022-10-26T12:54:50;7.07;;;2.97;;
14394;SDS011;7282;49.204;10.652;2022-10-26T12:57:30;6.90;;;2.80;;
14394;SDS011;7282;49.204;10.652;2022-10-26T13:00:10;5.53;;;2.93;;
14394;SDS011;7282;49.204;10.652;2022-10-26T13:05:28;6.30;;;2.60;;
14394;SDS011;7282;49.204;10.652;2022-10-26T13:07:52;8.20;;;3.17;;
14394;SDS011;7282;49.204;10.652;2022-10-26T13:10:21;5.03;;;3.10;;
14394;SDS011;7282;49.204;10.652;2022-10-26T13:12:50;8.07;;;3.00;;
14394;SDS011;7282;49.204;10.652;2022-10-26T13:15:36;4.63;;;2.90;;
14394;SDS011;7282;49.204;10.652;2022-10-26T13:18:06;7.00;;;3.27;;
14394;SDS011;7282;49.204;10.652;2022-10-26T13:20:30;9.37;;;3.43;;
14394;SDS011;7282;49.204;10.652;2022-10-26T13:22:57;5.50;;;3.23;;
14394;SDS011;7282;49.204;10.652;2022-10-26T13:25:27;7.27;;;3.10;;
14394;SDS011;7282;49.204;10.652;2022-10-26T13:27:59;5.07;;;2.87;;
14394;SDS011;7282;49.204;10.652;2022-10-26T13:33:01;6.53;;;2.87;;
14394;SDS011;7282;49.204;10.652;2022-10-26T13:35:28;6.23;;;3.10;;
14394;SDS011;7282;49.204;10.652;2022-10-26T13:37:56;5.97;;;2.80;;
14394;SDS011;7282;49.204;10.652;2022-10-26T13:40:25;3.70;;;2.70;;
14394;SDS011;7282;49.204;10.652;2022-10-26T13:42:56;6.87;;;3.10;;
14394;SDS011;7282;49.204;10.652;2022-10-26T13:45:27;6.60;;;2.60;;
14394;SDS011;7282;49.204;10.652;2022-10-26T13:47:57;6.20;;;3.40;;
14394;SDS011;7282;49.204;10.652;2022-10-26T13:53:15;6.30;;;3.10;;
14394;SDS011;7282;49.204;10.652;2022-10-26T13:55:57;7.23;;;3.30;;
14394;SDS011;7282;49.204;10.652;2022-10-26T14:01:10;5.70;;;2.67;;
14394;SDS011;7282;49.204;10.652;2022-10-26T14:03:27;6.17;;;3.13;;
14394;SDS011;7282;49.204;10.652;2022-10-26T14:05:53;3.80;;;2.57;;
14394;SDS011;7282;49.204;10.652;2022-10-26T14:08:21;4.17;;;2.33;;
14394;SDS011;7282;49.204;10.652;2022-10-26T14:10:52;6.77;;;3.37;;
14394;SDS011;7282;49.204;10.652;2022-10-26T14:13:20;3.83;;;2.43;;
14394;SDS011;7282;49.204;10.652;2022-10-26T14:15:47;5.43;;;2.47;;
14394;SDS011;7282;49.204;10.652;2022-10-26T14:18:20;5.63;;;2.67;;
14394;SDS011;7282;49.204;10.652;2022-10-26T14:20:47;3.90;;;2.00;;
14394;SDS011;7282;49.204;10.652;2022-10-26T14:25:57;4.53;;;2.53;;
14394;SDS011;7282;49.204;10.652;2022-10-26T14:28:29;6.23;;;2.57;;
14394;SDS011;7282;49.204;10.652;2022-10-26T14:30:52;6.43;;;2.63;;
14394;SDS011;7282;49.204;10.652;2022-10-26T14:33:23;5.13;;;3.00;;
14394;SDS011;7282;49.204;10.652;2022-10-26T14:35:48;5.30;;;2.70;;
14394;SDS011;7282;49.204;10.652;2022-10-26T14:38:21;5.23;;;2.27;;
14394;SDS011;7282;49.204;10.652;2022-10-26T14:40:51;4.10;;;2.20;;
14394;SDS011;7282;49.204;10.652;2022-10-26T14:43:20;7.63;;;3.37;;
14394;SDS011;7282;49.204;10.652;2022-10-26T14:45:48;4.07;;;2.80;;
14394;SDS011;7282;49.204;10.652;2022-10-26T14:48:20;2.93;;;2.50;;
14394;SDS011;7282;49.204;10.652;2022-10-26T14:50:45;9.20;;;3.80;;
14394;SDS011;7282;49.204;10.652;2022-10-26T14:53:13;9.07;;;3.17;;
14394;SDS011;7282;49.204;10.652;2022-10-26T14:55:47;6.93;;;2.90;;
14394;SDS011;7282;49.204;10.652;2022-10-26T14:58:21;7.77;;;3.40;;
14394;SDS011;7282;49.204;10.652;2022-10-26T15:00:43;3.77;;;2.60;;
14394;SDS011;7282;49.204;10.652;2022-10-26T15:03:13;5.70;;;2.90;;
14394;SDS011;7282;49.204;10.652;2022-10-26T15:05:39;5.07;;;2.80;;
14394;SDS011;7282;49.204;10.652;2022-10-26T15:08:38;4.33;;;2.27;;
14394;SDS011;7282;49.204;10.652;2022-10-26T15:13:09;6.20;;;2.80;;
14394;SDS011;7282;49.204;10.652;2022-10-26T15:15:36;36.80;;;6.77;;
14394;SDS011;7282;49.204;10.652;2022-10-26T15:18:03;18.60;;;4.67;;
14394;SDS011;7282;49.204;10.652;2022-10-26T15:20:30;10.30;;;4.00;;
14394;SDS011;7282;49.204;10.652;2022-10-26T15:22:57;5.93;;;3.80;;
14394;SDS011;7282;49.204;10.652;2022-10-26T15:25:25;6.80;;;3.73;;
14394;SDS011;7282;49.204;10.652;2022-10-26T15:27:53;5.50;;;3.83;;
14394;SDS011;7282;49.204;10.652;2022-10-26T15:30:24;4.47;;;3.40;;
14394;SDS011;7282;49.204;10.652;2022-10-26T15:32:52;6.50;;;3.00;;
14394;SDS011;7282;49.204;10.652;2022-10-26T15:37:48;6.93;;;2.80;;
14394;SDS011;7282;49.204;10.652;2022-10-26T15:40:15;5.70;;;2.93;;
14394;SDS011;7282;49.204;10.652;2022-10-26T15:42:42;5.37;;;3.20;;
14394;SDS011;7282;49.204;10.652;2022-10-26T15:45:19;5.73;;;3.00;;
14394;SDS011;7282;49.204;10.652;2022-10-26T15:47:43;5.13;;;3.20;;
14394;SDS011;7282;49.204;10.652;2022-10-26T15:50:13;5.93;;;3.07;;
14394;SDS011;7282;49.204;10.652;2022-10-26T15:52:40;8.43;;;3.40;;
14394;SDS011;7282;49.204;10.652;2022-10-26T15:55:06;5.70;;;3.43;;
14394;SDS011;7282;49.204;10.652;2022-10-26T15:57:33;7.47;;;3.60;;
14394;SDS011;7282;49.204;10.652;2022-10-26T16:00:00;8.23;;;3.77;;
14394;SDS011;7282;49.204;10.652;2022-10-26T16:02:27;8.30;;;4.40;;
14394;SDS011;7282;49.204;10.652;2022-10-26T16:04:54;7.53;;;4.63;;
14394;SDS011;7282;49.204;10.652;2022-10-26T16:07:21;8.63;;;5.00;;
14394;SDS011;7282;49.204;10.652;2022-10-26T16:09:50;5.93;;;4.40;;
14394;SDS011;7282;49.204;10.652;2022-10-26T16:12:17;9.40;;;4.90;;
14394;SDS011;7282;49.204;10.652;2022-10-26T16:14:43;8.30;;;4.77;;
14394;SDS011;7282;49.204;10.652;2022-10-26T16:17:10;6.10;;;4.33;;
14394;SDS011;7282;49.204;10.652;2022-10-26T16:19:37;8.73;;;4.17;;
14394;SDS011;7282;49.204;10.652;2022-10-26T16:22:03;5.90;;;4.23;;
14394;SDS011;7282;49.204;10.652;2022-10-26T16:24:30;8.50;;;4.50;;
14394;SDS011;7282;49.204;10.652;2022-10-26T16:26:57;6.80;;;3.63;;
14394;SDS011;7282;49.204;10.652;2022-10-26T16:29:24;8.53;;;3.70;;
14394;SDS011;7282;49.204;10.652;2022-10-26T16:31:50;4.77;;;3.63;;
14394;SDS011;7282;49.204;10.652;2022-10-26T16:34:17;6.53;;;3.73;;